This is the latest recevied weather packets stored in our database for station/object EA4BCR. If no packets are shown the sender has not sent any weather packets the latest 10 day(s).
| Time | Temp. | Humidity | Pressure | Rain* | Wind** | Luminosity | Snow |
|---|---|---|---|---|---|---|---|
| 1787804414 | 16.11° C | 48% | 1013 hPa | - | - | - | - |
| 1787803814 | 16.11° C | 48% | 1013 hPa | - | - | - | - |
| 1787803214 | 16.11° C | 48% | 1012.9 hPa | - | - | - | - |
| 1787802614 | 16.67° C | 47% | 1012.8 hPa | - | - | - | - |
| 1787802014 | 16.11° C | 47% | 1013.1 hPa | - | - | - | - |
| 1787801414 | 17.22° C | 45% | 1012.8 hPa | - | - | - | - |
| 1787800814 | 17.78° C | 45% | 1012.5 hPa | - | - | - | - |
| 1787800214 | 17.78° C | 46% | 1012.5 hPa | - | - | - | - |
| 1787799614 | 18.33° C | 45% | 1012.4 hPa | - | - | - | - |
| 1787799014 | 18.33° C | 44% | 1012.4 hPa | - | - | - | - |
| 1787798414 | 18.33° C | 44% | 1012.3 hPa | - | - | - | - |
| 1787797814 | 18.33° C | 42% | 1012.3 hPa | - | - | - | - |
| 1787797214 | 18.33° C | 42% | 1012.5 hPa | - | - | - | - |
| 1787796614 | 17.78° C | 43% | 1012.8 hPa | - | - | - | - |
| 1787796014 | 17.78° C | 42% | 1012.9 hPa | - | - | - | - |
| 1787795414 | 18.89° C | 40% | 1012.5 hPa | - | - | - | - |
| 1787794814 | 18.33° C | 42% | 1012.6 hPa | - | - | - | - |
| 1787794214 | 18.89° C | 41% | 1012.6 hPa | - | - | - | - |
| 1787793614 | 18.33° C | 40% | 1012.7 hPa | - | - | - | - |
| 1787793014 | 19.44° C | 38% | 1012.2 hPa | - | - | - | - |
| 1787792414 | 20° C | 41% | 1012.2 hPa | - | - | - | - |
| 1787791814 | 20° C | 39% | 1012.1 hPa | - | - | - | - |
| 1787791214 | 20.56° C | 39% | 1012 hPa | - | - | - | - |
| 1787790614 | 20° C | 40% | 1012.2 hPa | - | - | - | - |
| 1787790014 | 20° C | 38% | 1012.3 hPa | - | - | - | - |
* Rain since midnight (hover to see other rain measurements)
** Current wind speed in m/s (hover to see current wind gust speed)